F/V Anna Mamm Mari — FOHD — position and weather

sailwx.info

Track history (hours):
 
Tides and Currents Weather Stations Pressure Air Temp Water Temp Dewpoint Dewpoint Depression Visibility Wind Speed Wind Dir Waves Ship Positions

F/V Anna Mamm Mari

Last reported at 2017-Mar-17 19:16 UTC. Time now 2017-Mar-25 03:59 UTC.
Position N 46°29' W 001°47'.

Length 17 m.

Type: Fishing. MMSI: 228393000.

Date/timePositionNaut miles runAvg speedWind from/ knotsBaromVisibWave heightAir tempDewpointWater temp
2017-Mar-17 19:16N 46°29' W 001°47'6 8.0
2017-Mar-17 18:33N 46°23' W 001°46'27 2.2
2017-Mar-17 06:33N 45°57' W 001°43'0 0.1
2017-Mar-17 05:15N 45°57' W 001°43'0 0.5
2017-Mar-17 04:33N 45°57' W 001°43'5 2.6
2017-Mar-17 02:32N 46°02' W 001°42'18 8.4
2017-Mar-17 00:19N 46°21' W 001°46'7 8.7
2017-Mar-16 23:33N 46°27' W 001°47'3 2.6
2017-Mar-16 22:33N 46°30' W 001°47'0 0.0
2017-Mar-16 21:33N 46°30' W 001°47'0 0.0
2017-Mar-16 20:33N 46°30' W 001°47'0 0.0
2017-Mar-16 19:33N 46°30' W 001°47'0 0.0
2017-Mar-16 18:33N 46°30' W 001°47'1 0.7
2017-Mar-16 17:33N 46°29' W 001°47'9 8.7
2017-Mar-16 16:33N 46°21' W 001°45'9 9.2
2017-Mar-16 15:33N 46°12' W 001°43'9 8.0
2017-Mar-16 14:23N 46°02' W 001°42'5 0.8
2017-Mar-16 08:10N 45°58' W 001°37'1 0.7
2017-Mar-16 07:15N 45°58' W 001°36'0 0.2
2017-Mar-16 05:17N 45°58' W 001°36'  
2017-Mar-12 22:28N 46°15' W 001°44'7 7.4
2017-Mar-12 21:33N 46°22' W 001°45'7 7.4
2017-Mar-12 20:33N 46°29' W 001°47'1 0.7
2017-Mar-12 19:33N 46°30' W 001°47'4 4.0
2017-Mar-12 18:33N 46°26' W 001°46'8 8.2
2017-Mar-12 17:33N 46°18' W 001°44'11 0.3
2017-Mar-11 07:18N 46°12' W 001°58'1 0.4
2017-Mar-11 04:33N 46°13' W 001°57'0 0.2
2017-Mar-11 03:31N 46°13' W 001°57'0 0.0
2017-Mar-10 21:14N 46°13' W 001°57'0 0.2
2017-Mar-10 20:33N 46°13' W 001°57'0 0.2
2017-Mar-10 19:33N 46°13' W 001°56'4 1.8
2017-Mar-10 17:20N 46°17' W 001°55'4 4.1
2017-Mar-10 16:27N 46°13' W 001°57'13 4.5
2017-Mar-10 13:33N 46°20' W 002°14'9 1.7
2017-Mar-10 08:20N 46°25' W 002°24'0 0.2
2017-Mar-10 05:05N 46°25' W 002°25'0 0.2
2017-Mar-10 04:32N 46°25' W 002°25'1 1.0
2017-Mar-10 03:33N 46°26' W 002°26'0 0.2
2017-Mar-10 02:32N 46°26' W 002°25'0 0.1
2017-Mar-10 01:17N 46°26' W 002°25'0 0.1
2017-Mar-10 00:05N 46°26' W 002°25'0 0.1
2017-Mar-09 23:33N 46°26' W 002°25'0 0.1
2017-Mar-09 22:31N 46°26' W 002°26'1 0.1
2017-Mar-09 14:21N 46°26' W 002°24'2 2.0
2017-Mar-09 13:33N 46°27' W 002°26'1 0.1
2017-Mar-09 05:25N 46°27' W 002°27'2 1.9
2017-Mar-09 04:28N 46°25' W 002°26'14 3.5
2017-Mar-09 00:24N 46°26' W 002°05'15 0.7
2017-Mar-08 04:09N 46°27' W 002°27'1 0.9
2017-Mar-08 03:33N 46°26' W 002°27'  
Track history (hours):
 
Tides and Currents Weather Stations Pressure Air Temp Water Temp Dewpoint Dewpoint Depression Visibility Wind Speed Wind Dir Waves Ship Positions

F/V Anna Mamm Mari

Last reported at 2017-Mar-17 19:16 UTC. Time now 2017-Mar-25 03:59 UTC.
Position N 46°29' W 001°47'.

Length 17 m.

Type: Fishing. MMSI: 228393000.

Date/timePositionNaut miles runAvg speedWind from/ knotsBaromVisibWave heightAir tempDewpointWater temp
2017-Mar-17 19:16N 46°29' W 001°47'6 8.0
2017-Mar-17 18:33N 46°23' W 001°46'27 2.2
2017-Mar-17 06:33N 45°57' W 001°43'0 0.1
2017-Mar-17 05:15N 45°57' W 001°43'0 0.5
2017-Mar-17 04:33N 45°57' W 001°43'5 2.6
2017-Mar-17 02:32N 46°02' W 001°42'18 8.4
2017-Mar-17 00:19N 46°21' W 001°46'7 8.7
2017-Mar-16 23:33N 46°27' W 001°47'3 2.6
2017-Mar-16 22:33N 46°30' W 001°47'0 0.0
2017-Mar-16 21:33N 46°30' W 001°47'0 0.0
2017-Mar-16 20:33N 46°30' W 001°47'0 0.0
2017-Mar-16 19:33N 46°30' W 001°47'0 0.0
2017-Mar-16 18:33N 46°30' W 001°47'1 0.7
2017-Mar-16 17:33N 46°29' W 001°47'9 8.7
2017-Mar-16 16:33N 46°21' W 001°45'9 9.2
2017-Mar-16 15:33N 46°12' W 001°43'9 8.0
2017-Mar-16 14:23N 46°02' W 001°42'5 0.8
2017-Mar-16 08:10N 45°58' W 001°37'1 0.7
2017-Mar-16 07:15N 45°58' W 001°36'0 0.2
2017-Mar-16 05:17N 45°58' W 001°36'  
2017-Mar-12 22:28N 46°15' W 001°44'7 7.4
2017-Mar-12 21:33N 46°22' W 001°45'7 7.4
2017-Mar-12 20:33N 46°29' W 001°47'1 0.7
2017-Mar-12 19:33N 46°30' W 001°47'4 4.0
2017-Mar-12 18:33N 46°26' W 001°46'8 8.2
2017-Mar-12 17:33N 46°18' W 001°44'11 0.3
2017-Mar-11 07:18N 46°12' W 001°58'1 0.4
2017-Mar-11 04:33N 46°13' W 001°57'0 0.2
2017-Mar-11 03:31N 46°13' W 001°57'0 0.0
2017-Mar-10 21:14N 46°13' W 001°57'0 0.2
2017-Mar-10 20:33N 46°13' W 001°57'0 0.2
2017-Mar-10 19:33N 46°13' W 001°56'4 1.8
2017-Mar-10 17:20N 46°17' W 001°55'4 4.1
2017-Mar-10 16:27N 46°13' W 001°57'13 4.5
2017-Mar-10 13:33N 46°20' W 002°14'9 1.7
2017-Mar-10 08:20N 46°25' W 002°24'0 0.2
2017-Mar-10 05:05N 46°25' W 002°25'0 0.2
2017-Mar-10 04:32N 46°25' W 002°25'1 1.0
2017-Mar-10 03:33N 46°26' W 002°26'0 0.2
2017-Mar-10 02:32N 46°26' W 002°25'0 0.1
2017-Mar-10 01:17N 46°26' W 002°25'0 0.1
2017-Mar-10 00:05N 46°26' W 002°25'0 0.1
2017-Mar-09 23:33N 46°26' W 002°25'0 0.1
2017-Mar-09 22:31N 46°26' W 002°26'1 0.1
2017-Mar-09 14:21N 46°26' W 002°24'2 2.0
2017-Mar-09 13:33N 46°27' W 002°26'1 0.1
2017-Mar-09 05:25N 46°27' W 002°27'2 1.9
2017-Mar-09 04:28N 46°25' W 002°26'14 3.5
2017-Mar-09 00:24N 46°26' W 002°05'15 0.7
2017-Mar-08 04:09N 46°27' W 002°27'1 0.9
2017-Mar-08 03:33N 46°26' W 002°27'  

Dump ship's entire track history